Time;durP1;ratioP1;P1;durP2;ratioP2;P2;SDS_P1;SDS_P2;PMS_P1;PMS_P2;Temp;Humidity;BMP_temperature;BMP_pressure;BME280_temperature;BME280_humidity;BME280_pressure;Samples;Min_cycle;Max_cycle;Signal;HPM_P1;HPM_P2
2021/07/02 00:02:19;;;;;;;41.60;26.40;;;;;;;27.73;36.77;101586.75;5072605;28;20471;-70
2021/07/02 00:04:44;;;;;;;43.28;28.85;;;;;;;27.76;36.87;101585.13;5072608;28;20107;-70
2021/07/02 00:07:10;;;;;;;47.30;28.35;;;;;;;27.83;36.72;101593.50;5072475;28;20115;-70
2021/07/02 00:09:36;;;;;;;48.33;29.95;;;;;;;27.80;36.58;101591.50;5072876;28;20036;-70
2021/07/02 00:12:02;;;;;;;54.42;30.77;;;;;;;27.76;36.56;101587.94;5072360;28;20024;-70
2021/07/02 00:14:27;;;;;;;50.25;31.13;;;;;;;27.75;36.53;101583.53;5072304;28;20025;-70
2021/07/02 00:16:53;;;;;;;56.15;32.78;;;;;;;27.78;36.58;101583.50;5072360;28;20115;-70
2021/07/02 00:19:19;;;;;;;56.65;32.67;;;;;;;27.75;36.55;101577.94;5072212;28;20041;-69
2021/07/02 00:21:45;;;;;;;44.00;29.40;;;;;;;27.70;36.85;101575.53;5072595;28;20446;-70
2021/07/02 00:24:11;;;;;;;49.35;29.00;;;;;;;27.72;36.77;101573.13;5054465;28;20060;-70
2021/07/02 00:26:37;;;;;;;47.28;29.65;;;;;;;27.59;36.86;101572.78;5072564;28;20378;-70
2021/07/02 00:29:06;;;;;;;57.75;32.70;;;;;;;27.57;36.84;101572.38;5072255;28;20028;-70
2021/07/02 00:31:31;;;;;;;47.47;29.95;;;;;;;27.50;37.08;101569.59;5072285;28;20493;-70
2021/07/02 00:33:57;;;;;;;43.42;29.17;;;;;;;27.47;37.01;101576.84;5072162;28;20036;-69
2021/07/02 00:36:23;;;;;;;50.25;30.10;;;;;;;27.42;37.03;101576.47;5072200;28;20024;-70
2021/07/02 00:38:49;;;;;;;47.17;28.25;;;;;;;27.51;36.83;101576.84;5072384;28;20028;-70
2021/07/02 00:41:14;;;;;;;42.85;28.63;;;;;;;27.50;37.12;101576.00;5072190;28;20103;-70
2021/07/02 00:43:54;;;;;;;44.67;29.75;;;;;;;27.48;37.01;101575.63;5071624;28;20448;-70
2021/07/02 00:46:20;;;;;;;47.78;29.60;;;;;;;27.44;37.12;101569.25;5071377;28;20025;-71
2021/07/02 00:48:46;;;;;;;46.22;29.15;;;;;;;27.46;36.98;101563.22;5072136;28;20384;-70
2021/07/02 00:51:12;;;;;;;61.42;31.80;;;;;;;27.44;37.10;101555.22;5072364;28;20031;-70
2021/07/02 00:53:41;;;;;;;49.83;31.50;;;;;;;27.43;37.33;101558.41;5071948;28;20064;-72
2021/07/02 00:56:08;;;;;;;47.08;30.35;;;;;;;27.42;37.32;101559.63;5071982;28;20020;-70
2021/07/02 00:58:35;;;;;;;65.30;32.03;;;;;;;27.37;37.19;101556.06;5071892;28;20487;-70
2021/07/02 01:01:01;;;;;;;94.38;31.70;;;;;;;27.18;37.50;101550.13;5071950;28;20623;-70
2021/07/02 01:03:27;;;;;;;82.95;30.27;;;;;;;27.27;37.20;101550.47;5071924;28;20048;-70
2021/07/02 01:05:54;;;;;;;75.82;30.10;;;;;;;27.23;37.33;101546.91;5071963;28;20368;-70
2021/07/02 01:08:21;;;;;;;43.55;27.73;;;;;;;27.26;37.28;101551.69;5071866;28;20028;-70
2021/07/02 01:10:47;;;;;;;52.50;27.15;;;;;;;27.24;37.28;101545.69;5071842;28;20017;-70
2021/07/02 01:13:12;;;;;;;46.67;26.77;;;;;;;27.26;37.14;101555.28;5071851;28;20027;-70
2021/07/02 01:15:38;;;;;;;51.72;26.85;;;;;;;27.18;37.25;101544.53;5071783;28;20024;-71
2021/07/02 01:18:09;;;;;;;56.60;26.88;;;;;;;27.09;37.53;101537.34;5071643;28;20016;-72
2021/07/02 01:20:35;;;;;;;45.47;26.95;;;;;;;27.02;37.56;101537.34;5071798;28;20104;-70
2021/07/02 01:23:02;;;;;;;49.88;27.73;;;;;;;26.89;37.42;101538.19;5071753;28;20035;-70
2021/07/02 01:25:34;;;;;;;45.10;26.45;;;;;;;26.66;38.12;101536.66;5072546;28;20029;-70
2021/07/02 01:28:00;;;;;;;36.65;25.83;;;;;;;26.69;37.92;101537.88;5075331;28;20024;-70
2021/07/02 01:30:27;;;;;;;40.08;26.77;;;;;;;26.68;37.94;101528.66;5075671;28;20387;-70
2021/07/02 01:32:53;;;;;;;40.15;27.77;;;;;;;26.67;37.84;101520.63;5075254;28;20028;-76
2021/07/02 01:35:19;;;;;;;38.05;25.25;;;;;;;26.60;38.10;101520.66;5075274;28;20051;-76
2021/07/02 01:37:46;;;;;;;38.00;25.42;;;;;;;26.57;37.86;101515.88;5075138;28;20029;-71
2021/07/02 01:40:13;;;;;;;32.00;24.08;;;;;;;26.37;38.31;101507.84;5075172;28;20075;-70
2021/07/02 01:42:39;;;;;;;33.63;23.35;;;;;;;26.44;38.19;101510.69;5069377;28;20025;-70
2021/07/02 01:45:06;;;;;;;32.78;21.88;;;;;;;26.39;38.19;101502.72;5054624;28;20037;-70
2021/07/02 01:47:32;;;;;;;31.02;21.15;;;;;;;26.41;38.02;101500.28;5054864;28;20430;-70
2021/07/02 01:49:58;;;;;;;26.73;21.42;;;;;;;26.43;37.79;101499.88;5054922;28;20032;-73
2021/07/02 01:52:23;;;;;;;30.70;20.75;;;;;;;26.19;38.12;101496.69;5054804;28;20037;-70
2021/07/02 01:54:49;;;;;;;25.40;19.13;;;;;;;26.31;37.85;101491.88;5054845;28;20025;-70
2021/07/02 01:57:23;;;;;;;23.85;17.80;;;;;;;26.21;37.86;101490.69;5055108;28;20036;-70
2021/07/02 01:59:49;;;;;;;27.02;18.90;;;;;;;26.20;37.90;101483.47;5054696;28;20478;-69
2021/07/02 02:02:15;;;;;;;25.65;17.55;;;;;;;25.96;38.39;101483.09;5036950;28;20037;-70
2021/07/02 02:04:41;;;;;;;24.30;16.98;;;;;;;26.00;38.22;101483.91;5054671;28;20029;-70
2021/07/02 02:07:07;;;;;;;23.20;16.52;;;;;;;26.02;38.14;101482.72;5054611;28;20021;-76
2021/07/02 02:09:32;;;;;;;24.60;15.80;;;;;;;25.79;38.48;101478.31;5054867;28;20031;-70
2021/07/02 02:11:58;;;;;;;23.50;16.25;;;;;;;25.69;38.30;101474.28;5054496;28;20029;-71
2021/07/02 02:14:24;;;;;;;25.13;16.75;;;;;;;25.71;37.98;101476.69;5054531;28;20025;-70
2021/07/02 02:16:49;;;;;;;19.02;14.98;;;;;;;25.75;38.21;101471.91;5054450;28;20039;-70
2021/07/02 02:19:15;;;;;;;23.92;16.10;;;;;;;25.75;38.10;101471.09;5054142;28;20049;-72
2021/07/02 02:21:41;;;;;;;22.40;16.98;;;;;;;25.82;37.96;101465.50;5054325;28;20033;-70
2021/07/02 02:24:07;;;;;;;22.30;15.80;;;;;;;25.62;38.77;101465.09;5054314;28;20028;-69
2021/07/02 02:26:33;;;;;;;26.48;16.73;;;;;;;25.60;38.48;101454.28;5054252;28;20040;-70
2021/07/02 02:28:59;;;;;;;29.83;16.38;;;;;;;25.70;38.51;101452.69;5054501;28;20021;-70
2021/07/02 02:31:25;;;;;;;21.10;15.50;;;;;;;25.75;38.12;101455.13;5054195;28;20032;-70
2021/07/02 02:33:50;;;;;;;24.10;15.65;;;;;;;25.70;38.34;101447.91;5054215;28;20029;-70
2021/07/02 02:36:17;;;;;;;20.85;13.98;;;;;;;25.57;38.25;101440.31;5054045;28;20442;-70
2021/07/02 02:38:42;;;;;;;19.55;14.50;;;;;;;25.57;38.58;101443.91;5053976;28;20032;-75
2021/07/02 02:41:08;;;;;;;19.38;14.40;;;;;;;25.70;37.97;101444.31;5036079;28;20025;-71
2021/07/02 02:43:34;;;;;;;18.10;14.07;;;;;;;25.64;38.28;101448.69;5053983;28;20044;-69
2021/07/02 02:45:59;;;;;;;19.40;15.55;;;;;;;25.48;38.37;101448.28;5053871;28;20029;-70
2021/07/02 02:48:25;;;;;;;22.15;13.65;;;;;;;25.58;38.23;101447.50;5054151;28;20029;-70
2021/07/02 02:50:54;;;;;;;22.13;13.68;;;;;;;25.66;37.98;101446.28;5053927;28;20467;-69
2021/07/02 02:53:19;;;;;;;22.75;14.77;;;;;;;25.66;38.25;101444.28;5052155;28;20017;-71
2021/07/02 02:55:45;;;;;;;19.67;15.10;;;;;;;25.42;38.51;101453.47;5035961;28;20032;-70
2021/07/02 02:58:10;;;;;;;21.02;14.02;;;;;;;25.50;38.27;101445.88;5053549;28;20068;-70
2021/07/02 03:00:36;;;;;;;29.63;15.82;;;;;;;25.60;38.23;101454.28;5053549;28;20028;-73
2021/07/02 03:03:02;;;;;;;24.48;13.95;;;;;;;25.64;38.08;101448.69;5053544;28;20024;-71
2021/07/02 03:05:28;;;;;;;16.92;13.52;;;;;;;25.67;37.90;101445.88;5053516;28;20029;-69
2021/07/02 03:07:55;;;;;;;21.23;14.57;;;;;;;25.78;37.80;101448.72;5053504;28;20100;-70
2021/07/02 03:10:21;;;;;;;18.75;14.43;;;;;;;25.83;37.67;101444.72;5053385;28;20110;-70
2021/07/02 03:12:47;;;;;;;20.67;14.05;;;;;;;25.87;37.45;101446.31;5053412;28;20020;-70
2021/07/02 03:15:16;;;;;;;22.45;12.93;;;;;;;25.82;37.76;101446.72;5053275;28;20494;-69
2021/07/02 03:17:42;;;;;;;18.65;13.55;;;;;;;25.77;37.44;101447.13;5053239;28;20025;-69
2021/07/02 03:20:10;;;;;;;21.65;15.57;;;;;;;25.84;37.48;101449.09;5053164;28;20068;-69
2021/07/02 03:22:36;;;;;;;18.92;13.63;;;;;;;25.78;37.60;101457.13;5053050;28;20017;-70
2021/07/02 03:25:04;;;;;;;21.63;14.07;;;;;;;25.77;37.71;101449.09;5051862;28;20509;-70
2021/07/02 03:27:30;;;;;;;25.98;14.57;;;;;;;25.86;37.26;101439.13;5053406;28;20143;-69
2021/07/02 03:29:55;;;;;;;19.02;13.10;;;;;;;25.96;37.14;101445.91;5053123;28;20612;-70
2021/07/02 03:32:21;;;;;;;25.38;13.65;;;;;;;25.93;37.36;101446.72;5053027;28;20044;-69
2021/07/02 03:34:48;;;;;;;21.75;14.63;;;;;;;25.94;37.03;101442.72;5052935;28;20098;-70
2021/07/02 03:37:15;;;;;;;19.77;13.50;;;;;;;25.87;37.21;101442.72;5053015;28;20021;-69
2021/07/02 03:39:40;;;;;;;21.50;14.43;;;;;;;25.83;37.15;101444.72;5052798;28;20120;-75
2021/07/02 03:42:07;;;;;;;22.10;13.60;;;;;;;25.92;37.04;101445.09;5052833;28;20111;-70
2021/07/02 03:44:33;;;;;;;20.13;13.95;;;;;;;25.96;37.38;101449.50;5053053;28;20051;-70
2021/07/02 03:46:58;;;;;;;19.05;13.18;;;;;;;25.86;37.33;101450.34;5052760;28;20463;-69
2021/07/02 03:49:24;;;;;;;20.25;14.18;;;;;;;25.87;37.40;101449.13;5052342;28;20029;-69
2021/07/02 03:51:50;;;;;;;21.15;14.35;;;;;;;25.96;37.18;101446.72;5052730;28;20509;-70
2021/07/02 03:54:15;;;;;;;20.23;14.18;;;;;;;26.01;37.00;101445.50;5052533;28;20076;-70
2021/07/02 03:57:10;;;;;;;17.52;12.88;;;;;;;26.00;36.89;101433.53;5052659;28;20032;-75
2021/07/02 03:59:26;;;;;;;16.95;12.10;;;;;;;25.93;37.05;101438.31;5052433;28;20434;-70
2021/07/02 04:01:52;;;;;;;20.38;14.30;;;;;;;25.93;37.04;101438.31;5051253;28;20028;-70
2021/07/02 04:04:18;;;;;;;18.52;13.98;;;;;;;25.94;36.64;101431.53;5052510;28;20025;-70
2021/07/02 04:06:43;;;;;;;17.80;12.90;;;;;;;25.96;36.60;101429.13;5052414;28;20498;-69
2021/07/02 04:09:09;;;;;;;22.95;13.90;;;;;;;25.97;36.80;101434.31;5034615;28;20037;-71
2021/07/02 04:11:35;;;;;;;18.63;12.70;;;;;;;25.98;36.60;101432.31;5052450;28;20502;-70
2021/07/02 04:14:00;;;;;;;20.13;13.10;;;;;;;25.96;36.66;101427.13;5052160;28;20052;-70
2021/07/02 04:16:26;;;;;;;21.23;13.43;;;;;;;26.03;36.37;101425.50;5052355;28;20025;-71
2021/07/02 04:18:52;;;;;;;23.02;13.13;;;;;;;25.97;36.75;101422.31;5052270;28;20049;-70
2021/07/02 04:21:17;;;;;;;17.52;12.60;;;;;;;25.94;36.96;101414.72;5052428;28;20033;-69
2021/07/02 04:23:43;;;;;;;19.63;13.88;;;;;;;25.86;36.63;101411.13;5052258;28;20051;-69
2021/07/02 04:26:08;;;;;;;31.15;13.35;;;;;;;25.92;36.46;101408.72;5052277;28;20037;-70
2021/07/02 04:28:34;;;;;;;16.25;12.73;;;;;;;25.95;36.38;101402.31;5052154;28;20029;-70
2021/07/02 04:31:00;;;;;;;22.05;13.32;;;;;;;25.89;36.93;101401.13;5052295;28;20048;-69
2021/07/02 04:33:25;;;;;;;20.30;11.82;;;;;;;25.95;36.48;101400.31;5050999;28;20107;-70
2021/07/02 04:35:51;;;;;;;17.70;12.73;;;;;;;25.94;36.33;101398.72;5052294;28;20029;-71
2021/07/02 04:38:17;;;;;;;22.83;13.23;;;;;;;25.84;36.98;101396.72;5052139;28;20083;-70
2021/07/02 04:40:42;;;;;;;21.23;13.80;;;;;;;25.89;36.86;101396.31;5051681;28;20044;-70
2021/07/02 04:43:08;;;;;;;19.67;13.00;;;;;;;25.91;36.75;101388.31;5052164;28;20048;-75
2021/07/02 04:45:34;;;;;;;20.15;13.20;;;;;;;25.84;36.59;101393.91;5052130;28;20479;-69
2021/07/02 04:47:59;;;;;;;18.58;13.38;;;;;;;25.85;36.88;101391.94;5052117;28;20061;-68
2021/07/02 04:50:25;;;;;;;19.40;12.55;;;;;;;25.86;36.75;101396.34;5052116;28;20100;-69
2021/07/02 04:52:50;;;;;;;18.88;13.82;;;;;;;25.81;36.73;101391.16;5052157;28;20037;-69
2021/07/02 04:55:16;;;;;;;14.13;11.65;;;;;;;25.90;36.39;101400.72;5052138;28;20029;-74
2021/07/02 04:57:42;;;;;;;21.42;13.63;;;;;;;25.88;36.57;101400.31;5052143;28;20029;-69
2021/07/02 05:00:08;;;;;;;17.00;12.38;;;;;;;25.88;36.87;101399.53;5052225;28;20025;-68
2021/07/02 05:02:34;;;;;;;21.08;12.30;;;;;;;25.95;36.47;101394.72;5074395;28;20024;-69
2021/07/02 05:05:00;;;;;;;17.85;11.90;;;;;;;25.95;36.71;101397.53;5086570;28;20097;-70
2021/07/02 05:07:25;;;;;;;18.63;11.80;;;;;;;26.08;36.37;101399.91;5084950;28;20020;-70
2021/07/02 05:09:51;;;;;;;17.48;11.80;;;;;;;26.04;36.52;101405.50;5085520;28;20024;-70
2021/07/02 05:12:17;;;;;;;21.38;12.35;;;;;;;25.93;36.54;101405.53;5086251;28;20037;-69
2021/07/02 05:14:43;;;;;;;21.48;13.65;;;;;;;26.02;36.54;101401.50;5084326;28;20024;-69
2021/07/02 05:17:09;;;;;;;17.17;12.25;;;;;;;25.97;36.53;101414.72;5085830;28;20035;-69
2021/07/02 05:19:34;;;;;;;26.85;13.23;;;;;;;25.87;36.81;101414.72;5085319;28;20076;-69
2021/07/02 05:22:00;;;;;;;18.88;12.15;;;;;;;26.02;36.65;101418.31;5083935;28;20017;-69
2021/07/02 05:24:26;;;;;;;16.48;11.88;;;;;;;26.05;36.73;101415.50;5086263;28;20028;-69
2021/07/02 05:26:51;;;;;;;18.13;12.15;;;;;;;26.04;36.82;101435.50;5085321;28;20033;-70
2021/07/02 05:29:17;;;;;;;21.55;12.63;;;;;;;25.99;36.87;101423.50;5084376;28;20028;-70
2021/07/02 05:31:42;;;;;;;19.75;13.00;;;;;;;26.05;36.44;101423.09;5086032;28;20031;-70
2021/07/02 05:34:08;;;;;;;20.95;12.82;;;;;;;26.11;36.44;101421.50;5084591;28;20492;-70
2021/07/02 05:36:34;;;;;;;19.67;12.73;;;;;;;26.20;36.42;101425.47;5084715;28;20027;-70
2021/07/02 05:39:00;;;;;;;20.33;12.88;;;;;;;26.02;36.84;101433.13;5085842;28;20032;-70
2021/07/02 05:41:25;;;;;;;16.92;11.70;;;;;;;25.99;37.19;101428.28;5084283;28;20025;-70
2021/07/02 05:43:51;;;;;;;16.25;11.93;;;;;;;25.99;36.80;101426.28;5085208;28;20446;-70
2021/07/02 05:46:17;;;;;;;19.38;12.48;;;;;;;25.96;37.10;101432.72;5085521;28;20048;-70
2021/07/02 05:48:42;;;;;;;15.80;11.65;;;;;;;25.86;36.84;101441.94;5083628;28;20467;-70
2021/07/02 05:51:08;;;;;;;18.42;12.30;;;;;;;25.72;37.08;101439.94;5085223;28;20020;-71
2021/07/02 05:53:34;;;;;;;17.42;12.15;;;;;;;25.71;37.38;101435.53;5084805;28;20381;-71
2021/07/02 05:55:59;;;;;;;19.38;13.80;;;;;;;25.87;36.93;101437.94;5083440;28;20074;-70
2021/07/02 05:58:25;;;;;;;18.73;13.95;;;;;;;25.78;36.89;101433.94;5085533;28;20024;-72
2021/07/02 06:00:51;;;;;;;16.83;12.23;;;;;;;25.91;36.58;101438.72;5084343;28;20031;-70
2021/07/02 06:03:16;;;;;;;19.40;13.10;;;;;;;25.75;36.90;101432.72;5083175;28;20051;-70
2021/07/02 06:05:42;;;;;;;28.38;14.60;;;;;;;25.93;36.94;101441.13;5084626;28;20028;-70
2021/07/02 06:08:07;;;;;;;20.13;12.77;;;;;;;25.86;37.27;101432.75;5065051;28;20058;-70
2021/07/02 06:10:33;;;;;;;20.63;11.82;;;;;;;25.99;36.68;101442.31;5083589;28;20048;-71
2021/07/02 06:13:00;;;;;;;14.70;12.82;;;;;;;26.06;36.70;101447.88;5084099;28;20028;-70
2021/07/02 06:15:26;;;;;;;17.08;12.60;;;;;;;26.14;36.84;101443.88;5061855;28;20025;-70
2021/07/02 06:17:52;;;;;;;23.17;14.27;;;;;;;25.91;37.29;101449.91;5083430;28;20613;-70
2021/07/02 06:20:21;;;;;;;19.70;13.32;;;;;;;26.17;36.89;101453.50;5083994;28;20037;-70
2021/07/02 06:22:47;;;;;;;17.70;12.98;;;;;;;26.13;36.79;101453.47;5080294;28;20017;-70
2021/07/02 06:25:14;;;;;;;18.10;13.52;;;;;;;26.04;37.02;101450.31;5083192;28;20023;-70
2021/07/02 06:27:40;;;;;;;18.25;13.85;;;;;;;26.08;36.82;101459.50;5084203;28;20024;-70
2021/07/02 06:30:06;;;;;;;16.85;13.48;;;;;;;26.21;36.74;101457.06;5079487;28;20115;-70
2021/07/02 06:32:32;;;;;;;19.80;13.50;;;;;;;26.19;36.64;101463.09;5083052;28;20031;-70
2021/07/02 06:34:58;;;;;;;21.95;14.77;;;;;;;26.34;36.51;101469.47;5066152;28;20029;-70
2021/07/02 06:37:23;;;;;;;27.83;14.63;;;;;;;26.32;36.31;101463.47;5080784;28;20368;-70
2021/07/02 06:39:49;;;;;;;29.17;15.25;;;;;;;26.24;36.56;101462.69;5082823;28;20098;-71
2021/07/02 06:42:14;;;;;;;21.58;14.50;;;;;;;26.28;36.42;101465.47;5083136;28;20150;-69
2021/07/02 06:44:40;;;;;;;21.23;14.63;;;;;;;26.25;36.74;101477.47;5080472;28;20383;-70
2021/07/02 06:47:06;;;;;;;24.85;15.65;;;;;;;26.28;36.49;101463.47;5072743;28;20025;-77
2021/07/02 06:49:31;;;;;;;20.35;14.60;;;;;;;26.15;36.58;101465.09;5072671;28;20040;-70
2021/07/02 06:51:57;;;;;;;23.13;14.90;;;;;;;26.17;36.46;101470.28;5073850;28;20109;-69
2021/07/02 06:54:23;;;;;;;22.88;15.38;;;;;;;26.08;36.87;101467.91;5073769;28;20112;-69
2021/07/02 06:57:01;;;;;;;21.70;14.50;;;;;;;26.28;36.24;101468.25;5073698;28;20033;-69
2021/07/02 06:59:28;;;;;;;19.73;14.63;;;;;;;26.24;36.72;101465.47;5073589;28;20050;-69
2021/07/02 07:01:54;;;;;;;19.95;14.00;;;;;;;26.22;36.52;101458.66;5073609;28;20103;-69
2021/07/02 07:04:20;;;;;;;18.27;13.23;;;;;;;26.26;36.56;101462.28;5073588;28;20074;-69
2021/07/02 07:06:46;;;;;;;18.10;12.68;;;;;;;26.24;36.37;101465.47;5073417;28;20394;-69
2021/07/02 07:09:12;;;;;;;19.13;12.93;;;;;;;26.33;36.29;101467.88;5073474;28;20543;-69
2021/07/02 07:11:37;;;;;;;20.83;12.88;;;;;;;26.40;36.35;101469.88;5073719;28;20031;-69
2021/07/02 07:14:03;;;;;;;18.98;12.65;;;;;;;26.57;36.12;101471.03;5073493;28;20056;-69
2021/07/02 07:16:29;;;;;;;22.08;12.88;;;;;;;26.58;36.31;101467.00;5073267;28;20471;-69
2021/07/02 07:18:54;;;;;;;19.85;13.23;;;;;;;26.67;36.35;101473.00;5072909;28;20086;-70
2021/07/02 07:21:20;;;;;;;19.60;12.27;;;;;;;26.68;36.21;101469.81;5055111;28;20067;-69
2021/07/02 07:23:46;;;;;;;20.48;12.75;;;;;;;26.76;36.25;101484.59;5071982;28;20032;-76
2021/07/02 07:26:11;;;;;;;22.63;14.60;;;;;;;26.85;36.01;101475.75;5073199;28;20534;-77
2021/07/02 07:28:38;;;;;;;20.25;13.25;;;;;;;26.89;35.90;101476.50;5070960;28;20028;-69
2021/07/02 07:31:05;;;;;;;21.30;13.32;;;;;;;26.85;35.88;101470.94;5072005;28;20013;-69
2021/07/02 07:33:32;;;;;;;20.90;13.38;;;;;;;26.78;36.23;101470.97;5073046;28;20032;-71
2021/07/02 07:35:58;;;;;;;25.15;15.40;;;;;;;26.73;36.16;101472.16;5072957;28;20044;-70
2021/07/02 07:38:24;;;;;;;23.35;14.23;;;;;;;26.86;36.11;101466.91;5074487;28;20059;-76
2021/07/02 07:40:49;;;;;;;24.30;14.80;;;;;;;26.88;36.16;101469.31;5075278;28;20023;-70
2021/07/02 07:43:15;;;;;;;21.15;13.43;;;;;;;27.12;35.88;101467.59;5075054;28;20028;-78
2021/07/02 07:45:40;;;;;;;19.20;14.27;;;;;;;27.26;35.82;101461.91;5070811;28;20024;-70
2021/07/02 07:48:06;;;;;;;17.45;13.85;;;;;;;27.30;35.62;101465.50;5072455;28;20077;-70
2021/07/02 07:50:41;;;;;;;28.38;17.27;;;;;;;27.37;35.79;101468.28;5072276;28;20021;-73
2021/07/02 07:53:09;;;;;;;29.60;16.92;;;;;;;27.44;35.54;101468.22;5072733;28;20032;-73
2021/07/02 07:55:34;;;;;;;26.52;16.88;;;;;;;27.49;35.63;101464.97;5072385;28;20116;-72
2021/07/02 07:58:00;;;;;;;20.17;14.52;;;;;;;27.51;35.47;101456.94;5072526;28;20107;-78
2021/07/02 08:00:26;;;;;;;25.30;17.60;;;;;;;27.60;35.53;101451.66;5070821;28;20025;-78
2021/07/02 08:02:51;;;;;;;31.77;23.45;;;;;;;27.72;35.29;101446.78;5072850;28;20028;-71
2021/07/02 08:05:17;;;;;;;30.40;21.27;;;;;;;27.86;35.21;101450.25;5072546;28;20032;-73
2021/07/02 08:07:44;;;;;;;25.90;19.10;;;;;;;28.00;35.17;101454.16;5072731;28;20032;-80
2021/07/02 08:10:16;;;;;;;39.42;22.42;;;;;;;27.99;35.53;101455.38;5072383;28;20081;-70
2021/07/02 08:12:43;;;;;;;43.83;26.98;;;;;;;28.16;35.06;101448.78;5072744;28;20093;-70
2021/07/02 08:15:11;;;;;;;45.75;29.00;;;;;;;28.20;35.08;101447.53;5065902;28;20074;-73
2021/07/02 08:17:37;;;;;;;43.72;27.30;;;;;;;28.37;34.97;101450.59;5056035;28;20028;-72
2021/07/02 08:20:04;;;;;;;34.92;23.83;;;;;;;28.33;35.17;101444.22;5055013;28;20032;-72
2021/07/02 08:22:30;;;;;;;53.35;27.48;;;;;;;28.43;34.95;101444.09;5055200;28;20666;-70
2021/07/02 08:24:56;;;;;;;46.97;29.38;;;;;;;28.56;34.75;101447.16;5054849;28;20024;-71
2021/07/02 08:27:23;;;;;;;40.85;28.20;;;;;;;28.68;34.70;101438.16;5055319;28;20043;-71
2021/07/02 08:29:50;;;;;;;42.28;28.10;;;;;;;28.79;34.52;101443.66;5054178;28;20067;-70
2021/07/02 08:32:16;;;;;;;48.22;27.73;;;;;;;28.89;34.33;101439.91;5071123;28;20094;-77
2021/07/02 08:34:42;;;;;;;31.48;22.63;;;;;;;28.95;34.52;101438.25;5071964;28;20025;-69
2021/07/02 08:37:07;;;;;;;29.45;21.58;;;;;;;29.02;34.20;101455.03;5075781;28;20059;-70
2021/07/02 08:39:33;;;;;;;28.27;20.33;;;;;;;29.00;34.19;101453.84;5076303;28;20064;-74
2021/07/02 08:42:00;;;;;;;33.63;20.60;;;;;;;28.96;34.04;101447.50;5076358;28;20024;-69
2021/07/02 08:44:25;;;;;;;32.55;22.73;;;;;;;29.05;34.12;101447.75;5075791;28;20025;-71
2021/07/02 08:46:52;;;;;;;40.67;26.65;;;;;;;28.97;34.25;101447.06;5076364;28;20035;-78
2021/07/02 08:49:20;;;;;;;32.03;22.67;;;;;;;28.87;34.51;101444.34;5077237;28;20025;-77
2021/07/02 08:51:46;;;;;;;25.00;20.90;;;;;;;28.97;34.00;101447.06;5058879;28;20535;-79
2021/07/02 08:54:14;;;;;;;28.60;21.98;;;;;;;28.89;34.18;101444.75;5076693;28;20035;-80
2021/07/02 08:56:55;;;;;;;39.42;26.92;;;;;;;29.08;34.07;101446.91;5076786;28;20021;-77
2021/07/02 08:59:21;;;;;;;39.97;28.08;;;;;;;29.25;34.03;101453.53;5076530;28;20032;-75
2021/07/02 09:01:47;;;;;;;40.20;28.50;;;;;;;29.27;33.88;101443.41;5076653;28;20028;-74
2021/07/02 09:04:23;;;;;;;47.63;32.53;;;;;;;29.33;33.90;101445.75;5076782;28;20024;-83
2021/07/02 09:07:03;;;;;;;56.25;35.30;;;;;;;29.45;33.73;101445.16;5077597;28;20067;-84
2021/07/02 09:09:47;;;;;;;52.92;35.25;;;;;;;29.66;33.30;101439.22;5076070;28;20054;-83
2021/07/02 09:12:15;;;;;;;54.10;38.97;;;;;;;29.81;33.40;101429.28;5076439;28;20467;-80
2021/07/02 09:14:54;;;;;;;55.30;37.72;;;;;;;29.81;33.22;101434.94;5057890;28;20500;-82
2021/07/02 09:17:24;;;;;;;52.20;34.47;;;;;;;29.92;33.34;101428.28;5077122;28;20033;-80
2021/07/02 09:20:12;;;;;;;49.22;35.65;;;;;;;30.01;32.91;101420.91;5057987;28;20636;-75
2021/07/02 09:22:48;;;;;;;53.33;36.35;;;;;;;30.12;32.87;101412.25;5058066;28;20029;-71
2021/07/02 09:25:30;;;;;;;45.65;32.20;;;;;;;30.26;32.83;101406.34;5072140;28;20095;-74
2021/07/02 09:28:03;;;;;;;32.95;26.50;;;;;;;30.29;32.34;101397.00;5053336;28;20426;-74
2021/07/02 09:30:31;;;;;;;28.08;21.92;;;;;;;30.27;32.48;101396.66;5065907;28;20028;-75
2021/07/02 09:33:03;;;;;;;27.88;20.33;;;;;;;30.39;32.40;101395.22;5071906;28;20044;-78
2021/07/02 09:35:34;;;;;;;20.60;18.00;;;;;;;30.48;32.46;101397.47;5070131;28;20021;-70
2021/07/02 09:38:01;;;;;;;22.70;19.08;;;;;;;30.59;32.48;101390.34;5072502;28;20044;-78
2021/07/02 09:40:30;;;;;;;25.77;18.75;;;;;;;30.50;32.52;101381.69;5070947;28;20119;-80
2021/07/02 09:43:12;;;;;;;24.67;20.58;;;;;;;30.42;32.52;101388.72;5054263;28;20123;-80
2021/07/02 09:45:50;;;;;;;27.15;20.00;;;;;;;30.43;32.86;101387.47;5071109;28;20365;-74
2021/07/02 09:48:17;;;;;;;29.00;21.30;;;;;;;30.48;32.84;101370.06;5053419;28;20037;-76
2021/07/02 09:50:56;;;;;;;35.10;21.70;;;;;;;30.30;32.93;101376.06;5071009;28;20036;-73
2021/07/02 09:53:32;;;;;;;32.92;22.98;;;;;;;30.33;33.08;101374.41;5077922;28;20041;-78
2021/07/02 09:56:02;;;;;;;36.45;25.52;;;;;;;30.28;32.98;101364.41;5064771;28;20016;-76
2021/07/02 09:58:39;;;;;;;38.90;24.60;;;;;;;30.25;33.47;101375.78;5065561;28;20399;-81
2021/07/02 10:01:09;;;;;;;37.63;24.75;;;;;;;30.25;33.35;101367.31;5060718;28;20107;-76
2021/07/02 10:03:35;;;;;;;36.58;23.52;;;;;;;30.20;33.24;101368.63;5062990;28;20024;-74
2021/07/02 10:06:06;;;;;;;37.47;22.75;;;;;;;30.31;33.19;101376.88;5061672;28;20025;-77
2021/07/02 10:08:34;;;;;;;30.50;20.52;;;;;;;30.57;33.24;101390.00;5063474;28;20862;-73
2021/07/02 10:11:02;;;;;;;24.95;19.17;;;;;;;30.67;33.04;101394.63;5064742;28;20025;-73
2021/07/02 10:13:31;;;;;;;28.85;19.25;;;;;;;30.80;32.50;101393.97;5044459;28;20052;-79
2021/07/02 10:15:58;;;;;;;24.67;18.95;;;;;;;30.88;32.07;101389.75;5065494;28;20028;-78
2021/07/02 10:18:27;;;;;;;26.90;18.17;;;;;;;30.83;32.25;101393.09;5061529;28;20159;-76
2021/07/02 10:20:55;;;;;;;25.90;17.60;;;;;;;30.83;32.11;101391.09;5064682;28;20023;-79
2021/07/02 10:23:28;;;;;;;24.98;17.70;;;;;;;30.87;32.24;101397.44;5047446;28;21227;-75
2021/07/02 10:25:56;;;;;;;26.45;17.30;;;;;;;30.98;31.71;101402.81;5065965;28;20101;-74
2021/07/02 10:28:24;;;;;;;27.02;17.45;;;;;;;30.96;31.66;101401.69;5045972;28;20050;-76
2021/07/02 10:30:50;;;;;;;28.90;18.00;;;;;;;30.89;32.17;101408.28;5066209;28;20166;-73
2021/07/02 10:33:19;;;;;;;24.70;16.40;;;;;;;30.99;31.53;101400.81;5064556;28;20085;-76
2021/07/02 10:36:00;;;;;;;22.02;15.95;;;;;;;31.06;31.72;101409.91;5063576;28;20024;-76
2021/07/02 10:38:38;;;;;;;21.10;14.05;;;;;;;31.02;31.77;101408.41;5063721;28;20055;-75
2021/07/02 10:41:09;;;;;;;18.30;13.82;;;;;;;30.93;31.67;101406.19;5064920;28;20032;-80
2021/07/02 10:43:35;;;;;;;18.92;12.68;;;;;;;31.04;31.80;101405.91;5068871;28;20052;-73
2021/07/02 10:46:14;;;;;;;20.75;12.77;;;;;;;30.98;31.29;101408.47;5067482;28;20059;-80
2021/07/02 10:48:51;;;;;;;14.27;12.35;;;;;;;30.91;31.69;101408.66;5067772;28;20044;-73
2021/07/02 10:51:40;;;;;;;18.05;13.07;;;;;;;30.97;31.31;101412.53;5068144;28;20868;-73
2021/07/02 10:54:11;;;;;;;19.33;12.88;;;;;;;30.97;31.28;101409.69;5059263;28;20107;-81
2021/07/02 10:56:38;;;;;;;16.88;13.05;;;;;;;31.02;31.62;101414.03;5068003;28;20537;-74
2021/07/02 10:59:07;;;;;;;20.17;12.32;;;;;;;30.94;31.43;101413.41;5066615;28;20085;-72
2021/07/02 11:01:32;;;;;;;27.58;15.30;;;;;;;30.89;31.43;101409.06;5068903;28;20491;-76
2021/07/02 11:04:35;;;;;;;32.30;14.85;;;;;;;30.83;31.83;101410.00;5069514;28;20047;-81
2021/07/02 11:07:22;;;;;;;23.63;15.23;;;;;;;30.72;32.47;101417.94;5051761;28;20442;-72
2021/07/02 11:09:48;;;;;;;19.95;14.30;;;;;;;30.70;32.16;101409.13;5068266;28;20024;-73
2021/07/02 11:12:16;;;;;;;21.55;15.60;;;;;;;30.73;32.59;101409.03;5069300;28;20024;-76